sensor_id;sensor_type;location;lat;lon;timestamp;temperature;humidity
3701;DHT22;1866;48.374;10.766;2022-12-29T00:01:23;5.20;1.00
3701;DHT22;1866;48.374;10.766;2022-12-29T00:03:50;5.10;1.00
3701;DHT22;1866;48.374;10.766;2022-12-29T00:06:17;5.20;1.00
3701;DHT22;1866;48.374;10.766;2022-12-29T00:08:44;5.20;1.00
3701;DHT22;1866;48.374;10.766;2022-12-29T00:11:15;5.30;1.00
3701;DHT22;1866;48.374;10.766;2022-12-29T00:13:43;5.30;1.00
3701;DHT22;1866;48.374;10.766;2022-12-29T00:16:28;5.30;1.00
3701;DHT22;1866;48.374;10.766;2022-12-29T00:18:56;5.10;1.00
3701;DHT22;1866;48.374;10.766;2022-12-29T00:21:24;5.20;1.00
3701;DHT22;1866;48.374;10.766;2022-12-29T00:24:12;5.40;1.00
3701;DHT22;1866;48.374;10.766;2022-12-29T00:27:11;5.50;1.00
3701;DHT22;1866;48.374;10.766;2022-12-29T00:29:56;5.60;1.00
3701;DHT22;1866;48.374;10.766;2022-12-29T00:32:41;5.80;1.00
3701;DHT22;1866;48.374;10.766;2022-12-29T00:35:28;5.70;1.00
3701;DHT22;1866;48.374;10.766;2022-12-29T00:37:58;5.50;1.00
3701;DHT22;1866;48.374;10.766;2022-12-29T00:40:43;5.40;1.00
3701;DHT22;1866;48.374;10.766;2022-12-29T00:43:28;5.30;1.00
3701;DHT22;1866;48.374;10.766;2022-12-29T00:46:15;5.60;1.00
3701;DHT22;1866;48.374;10.766;2022-12-29T00:48:42;5.60;1.00
3701;DHT22;1866;48.374;10.766;2022-12-29T00:51:26;5.70;1.00
3701;DHT22;1866;48.374;10.766;2022-12-29T00:53:53;5.40;1.00
3701;DHT22;1866;48.374;10.766;2022-12-29T00:56:20;5.60;1.00
3701;DHT22;1866;48.374;10.766;2022-12-29T00:58:48;5.50;1.00
3701;DHT22;1866;48.374;10.766;2022-12-29T01:01:15;5.50;1.00
3701;DHT22;1866;48.374;10.766;2022-12-29T01:03:42;5.70;1.00
3701;DHT22;1866;48.374;10.766;2022-12-29T01:06:10;5.90;1.00
3701;DHT22;1866;48.374;10.766;2022-12-29T01:08:37;6.00;1.00
3701;DHT22;1866;48.374;10.766;2022-12-29T01:11:06;6.00;1.00
3701;DHT22;1866;48.374;10.766;2022-12-29T01:13:33;6.10;1.00
3701;DHT22;1866;48.374;10.766;2022-12-29T01:16:02;6.10;1.00
3701;DHT22;1866;48.374;10.766;2022-12-29T01:18:28;6.00;1.00
3701;DHT22;1866;48.374;10.766;2022-12-29T01:20:59;6.10;1.00
3701;DHT22;1866;48.374;10.766;2022-12-29T01:23:27;6.10;1.00
3701;DHT22;1866;48.374;10.766;2022-12-29T01:25:54;6.10;1.00
3701;DHT22;1866;48.374;10.766;2022-12-29T01:28:22;6.40;1.00
3701;DHT22;1866;48.374;10.766;2022-12-29T01:30:49;6.50;1.00
3701;DHT22;1866;48.374;10.766;2022-12-29T01:33:18;6.30;1.00
3701;DHT22;1866;48.374;10.766;2022-12-29T01:35:45;6.30;1.00
3701;DHT22;1866;48.374;10.766;2022-12-29T01:38:12;6.30;1.00
3701;DHT22;1866;48.374;10.766;2022-12-29T01:40:45;6.30;1.00
3701;DHT22;1866;48.374;10.766;2022-12-29T01:43:13;6.40;1.00
3701;DHT22;1866;48.374;10.766;2022-12-29T01:45:45;6.40;1.00
3701;DHT22;1866;48.374;10.766;2022-12-29T01:48:15;6.40;1.00
3701;DHT22;1866;48.374;10.766;2022-12-29T01:50:49;6.60;1.00
3701;DHT22;1866;48.374;10.766;2022-12-29T01:53:19;7.00;1.00
3701;DHT22;1866;48.374;10.766;2022-12-29T01:55:51;6.80;1.00
3701;DHT22;1866;48.374;10.766;2022-12-29T01:58:22;6.90;1.00
3701;DHT22;1866;48.374;10.766;2022-12-29T02:00:51;6.80;1.00
3701;DHT22;1866;48.374;10.766;2022-12-29T02:03:19;6.80;1.00
3701;DHT22;1866;48.374;10.766;2022-12-29T02:05:54;6.90;1.00
3701;DHT22;1866;48.374;10.766;2022-12-29T02:08:25;6.90;1.00
3701;DHT22;1866;48.374;10.766;2022-12-29T02:10:52;6.90;1.00
3701;DHT22;1866;48.374;10.766;2022-12-29T02:13:20;6.90;1.00
3701;DHT22;1866;48.374;10.766;2022-12-29T02:15:53;6.90;1.00
3701;DHT22;1866;48.374;10.766;2022-12-29T02:18:32;6.80;1.00
3701;DHT22;1866;48.374;10.766;2022-12-29T02:24:11;6.90;1.00
3701;DHT22;1866;48.374;10.766;2022-12-29T02:30:07;7.20;1.00
3701;DHT22;1866;48.374;10.766;2022-12-29T02:32:45;7.20;1.00
3701;DHT22;1866;48.374;10.766;2022-12-29T02:35:25;7.30;1.00
3701;DHT22;1866;48.374;10.766;2022-12-29T02:38:01;7.20;1.00
3701;DHT22;1866;48.374;10.766;2022-12-29T02:40:33;7.20;1.00
3701;DHT22;1866;48.374;10.766;2022-12-29T02:43:08;7.20;1.00
3701;DHT22;1866;48.374;10.766;2022-12-29T02:45:39;7.10;1.00
3701;DHT22;1866;48.374;10.766;2022-12-29T02:48:14;7.20;1.00
3701;DHT22;1866;48.374;10.766;2022-12-29T02:50:48;7.20;1.00
3701;DHT22;1866;48.374;10.766;2022-12-29T02:53:18;7.40;1.00
3701;DHT22;1866;48.374;10.766;2022-12-29T02:56:06;7.10;1.00
3701;DHT22;1866;48.374;10.766;2022-12-29T02:58:32;7.30;1.00
3701;DHT22;1866;48.374;10.766;2022-12-29T03:01:11;7.40;1.00
3701;DHT22;1866;48.374;10.766;2022-12-29T03:03:50;7.20;1.00
3701;DHT22;1866;48.374;10.766;2022-12-29T03:06:33;7.10;1.00
3701;DHT22;1866;48.374;10.766;2022-12-29T03:09:09;7.30;1.00
3701;DHT22;1866;48.374;10.766;2022-12-29T03:11:53;7.30;1.00
3701;DHT22;1866;48.374;10.766;2022-12-29T03:14:39;7.30;1.00
3701;DHT22;1866;48.374;10.766;2022-12-29T03:17:32;7.40;1.00
3701;DHT22;1866;48.374;10.766;2022-12-29T03:20:06;7.50;1.00
3701;DHT22;1866;48.374;10.766;2022-12-29T03:22:38;7.30;1.00
3701;DHT22;1866;48.374;10.766;2022-12-29T03:25:10;7.30;1.00
3701;DHT22;1866;48.374;10.766;2022-12-29T03:27:43;7.30;1.00
3701;DHT22;1866;48.374;10.766;2022-12-29T03:30:11;7.50;1.00
3701;DHT22;1866;48.374;10.766;2022-12-29T03:32:42;7.50;1.00
3701;DHT22;1866;48.374;10.766;2022-12-29T03:35:14;7.80;1.00
3701;DHT22;1866;48.374;10.766;2022-12-29T03:37:48;7.70;1.00
3701;DHT22;1866;48.374;10.766;2022-12-29T03:40:16;7.80;1.00
3701;DHT22;1866;48.374;10.766;2022-12-29T03:42:44;8.20;1.00
3701;DHT22;1866;48.374;10.766;2022-12-29T03:45:11;8.10;1.00
3701;DHT22;1866;48.374;10.766;2022-12-29T03:47:38;8.10;1.00
3701;DHT22;1866;48.374;10.766;2022-12-29T03:50:06;8.10;1.00
3701;DHT22;1866;48.374;10.766;2022-12-29T03:52:35;8.20;1.00
3701;DHT22;1866;48.374;10.766;2022-12-29T03:55:02;8.30;1.00
3701;DHT22;1866;48.374;10.766;2022-12-29T03:57:29;8.40;1.00
3701;DHT22;1866;48.374;10.766;2022-12-29T03:59:56;8.30;1.00
3701;DHT22;1866;48.374;10.766;2022-12-29T04:02:22;8.40;1.00
3701;DHT22;1866;48.374;10.766;2022-12-29T04:04:49;8.40;1.00
3701;DHT22;1866;48.374;10.766;2022-12-29T04:07:16;8.20;1.00
3701;DHT22;1866;48.374;10.766;2022-12-29T04:09:44;8.20;1.00
3701;DHT22;1866;48.374;10.766;2022-12-29T04:12:11;8.30;1.00
3701;DHT22;1866;48.374;10.766;2022-12-29T04:14:39;8.50;1.00
3701;DHT22;1866;48.374;10.766;2022-12-29T04:17:05;8.40;1.00
3701;DHT22;1866;48.374;10.766;2022-12-29T04:19:32;8.30;1.00
3701;DHT22;1866;48.374;10.766;2022-12-29T04:21:59;8.30;1.00
3701;DHT22;1866;48.374;10.766;2022-12-29T04:24:26;8.20;1.00
3701;DHT22;1866;48.374;10.766;2022-12-29T04:26:54;8.40;1.00
3701;DHT22;1866;48.374;10.766;2022-12-29T04:29:21;8.30;1.00
3701;DHT22;1866;48.374;10.766;2022-12-29T04:31:48;8.20;1.00
3701;DHT22;1866;48.374;10.766;2022-12-29T04:34:15;8.30;1.00
3701;DHT22;1866;48.374;10.766;2022-12-29T04:36:42;8.20;1.00
3701;DHT22;1866;48.374;10.766;2022-12-29T04:39:08;8.30;1.00
3701;DHT22;1866;48.374;10.766;2022-12-29T04:41:35;8.40;1.00
3701;DHT22;1866;48.374;10.766;2022-12-29T04:44:03;8.70;1.00
3701;DHT22;1866;48.374;10.766;2022-12-29T04:46:30;8.50;1.00
3701;DHT22;1866;48.374;10.766;2022-12-29T04:48:57;8.30;1.00
3701;DHT22;1866;48.374;10.766;2022-12-29T04:51:26;8.30;1.00
3701;DHT22;1866;48.374;10.766;2022-12-29T04:53:52;8.30;1.00
3701;DHT22;1866;48.374;10.766;2022-12-29T04:56:19;8.20;1.00
3701;DHT22;1866;48.374;10.766;2022-12-29T04:58:46;8.40;1.00
3701;DHT22;1866;48.374;10.766;2022-12-29T05:01:14;8.40;1.00
3701;DHT22;1866;48.374;10.766;2022-12-29T05:03:41;8.30;1.00
3701;DHT22;1866;48.374;10.766;2022-12-29T05:06:08;8.20;1.00
3701;DHT22;1866;48.374;10.766;2022-12-29T05:08:35;8.30;1.00
3701;DHT22;1866;48.374;10.766;2022-12-29T05:11:01;8.20;1.00
3701;DHT22;1866;48.374;10.766;2022-12-29T05:13:28;8.20;1.00
3701;DHT22;1866;48.374;10.766;2022-12-29T05:15:55;8.10;1.00
3701;DHT22;1866;48.374;10.766;2022-12-29T05:18:23;8.20;1.00
3701;DHT22;1866;48.374;10.766;2022-12-29T05:20:50;8.10;1.00
3701;DHT22;1866;48.374;10.766;2022-12-29T05:23:17;7.90;1.00
3701;DHT22;1866;48.374;10.766;2022-12-29T05:25:44;7.90;1.00
3701;DHT22;1866;48.374;10.766;2022-12-29T05:28:12;8.00;1.00
3701;DHT22;1866;48.374;10.766;2022-12-29T05:30:39;8.00;1.00
3701;DHT22;1866;48.374;10.766;2022-12-29T05:33:06;8.00;1.00
3701;DHT22;1866;48.374;10.766;2022-12-29T05:35:34;8.00;1.00
3701;DHT22;1866;48.374;10.766;2022-12-29T05:38:01;8.10;1.00
3701;DHT22;1866;48.374;10.766;2022-12-29T05:40:28;8.30;1.00
3701;DHT22;1866;48.374;10.766;2022-12-29T05:42:54;8.00;1.00
3701;DHT22;1866;48.374;10.766;2022-12-29T05:45:21;8.00;1.00
3701;DHT22;1866;48.374;10.766;2022-12-29T05:47:48;8.00;1.00
3701;DHT22;1866;48.374;10.766;2022-12-29T05:50:15;7.90;1.00
3701;DHT22;1866;48.374;10.766;2022-12-29T05:52:44;8.00;1.00
3701;DHT22;1866;48.374;10.766;2022-12-29T05:55:11;8.00;1.00
3701;DHT22;1866;48.374;10.766;2022-12-29T05:57:38;7.90;1.00
3701;DHT22;1866;48.374;10.766;2022-12-29T06:00:06;8.00;1.00
3701;DHT22;1866;48.374;10.766;2022-12-29T06:02:33;7.90;1.00
3701;DHT22;1866;48.374;10.766;2022-12-29T06:05:00;7.90;1.00
3701;DHT22;1866;48.374;10.766;2022-12-29T06:07:27;7.80;1.00
3701;DHT22;1866;48.374;10.766;2022-12-29T06:09:55;7.80;1.00
3701;DHT22;1866;48.374;10.766;2022-12-29T06:12:23;8.10;1.00
3701;DHT22;1866;48.374;10.766;2022-12-29T06:14:50;8.00;1.00
3701;DHT22;1866;48.374;10.766;2022-12-29T06:17:16;7.80;1.00
3701;DHT22;1866;48.374;10.766;2022-12-29T06:19:43;7.80;1.00
3701;DHT22;1866;48.374;10.766;2022-12-29T06:22:10;7.70;1.00
3701;DHT22;1866;48.374;10.766;2022-12-29T06:24:37;8.00;1.00
3701;DHT22;1866;48.374;10.766;2022-12-29T06:27:05;8.00;1.00
3701;DHT22;1866;48.374;10.766;2022-12-29T06:29:32;7.80;1.00
3701;DHT22;1866;48.374;10.766;2022-12-29T06:32:01;7.60;1.00
3701;DHT22;1866;48.374;10.766;2022-12-29T06:34:28;7.80;1.00
3701;DHT22;1866;48.374;10.766;2022-12-29T06:36:55;7.70;1.00
3701;DHT22;1866;48.374;10.766;2022-12-29T06:39:22;7.70;1.00
3701;DHT22;1866;48.374;10.766;2022-12-29T06:41:51;7.90;1.00
3701;DHT22;1866;48.374;10.766;2022-12-29T06:44:20;7.90;1.00
3701;DHT22;1866;48.374;10.766;2022-12-29T06:46:47;7.90;1.00
3701;DHT22;1866;48.374;10.766;2022-12-29T06:49:14;7.70;1.00
3701;DHT22;1866;48.374;10.766;2022-12-29T06:51:41;7.60;1.00
3701;DHT22;1866;48.374;10.766;2022-12-29T06:54:07;7.70;1.00
3701;DHT22;1866;48.374;10.766;2022-12-29T06:56:34;7.80;1.00
3701;DHT22;1866;48.374;10.766;2022-12-29T06:59:01;7.80;1.00
3701;DHT22;1866;48.374;10.766;2022-12-29T07:01:30;7.90;1.00
3701;DHT22;1866;48.374;10.766;2022-12-29T07:03:56;7.70;1.00
3701;DHT22;1866;48.374;10.766;2022-12-29T07:06:24;7.70;1.00
3701;DHT22;1866;48.374;10.766;2022-12-29T07:08:50;8.10;1.00
3701;DHT22;1866;48.374;10.766;2022-12-29T07:11:20;8.10;1.00
3701;DHT22;1866;48.374;10.766;2022-12-29T07:13:47;8.20;1.00
3701;DHT22;1866;48.374;10.766;2022-12-29T07:16:14;8.10;1.00
3701;DHT22;1866;48.374;10.766;2022-12-29T07:18:43;8.00;1.00
3701;DHT22;1866;48.374;10.766;2022-12-29T07:21:10;8.00;1.00
3701;DHT22;1866;48.374;10.766;2022-12-29T07:23:37;7.90;1.00
3701;DHT22;1866;48.374;10.766;2022-12-29T07:26:06;8.00;1.00
3701;DHT22;1866;48.374;10.766;2022-12-29T07:28:34;8.00;1.00
3701;DHT22;1866;48.374;10.766;2022-12-29T07:31:01;8.10;1.00
3701;DHT22;1866;48.374;10.766;2022-12-29T07:33:29;8.00;1.00
3701;DHT22;1866;48.374;10.766;2022-12-29T07:35:58;8.00;1.00
3701;DHT22;1866;48.374;10.766;2022-12-29T07:38:25;8.10;1.00
3701;DHT22;1866;48.374;10.766;2022-12-29T07:40:56;8.30;1.00
3701;DHT22;1866;48.374;10.766;2022-12-29T07:43:23;8.20;1.00
3701;DHT22;1866;48.374;10.766;2022-12-29T07:45:50;8.30;1.00
3701;DHT22;1866;48.374;10.766;2022-12-29T07:48:17;8.50;1.00
3701;DHT22;1866;48.374;10.766;2022-12-29T07:50:43;8.40;1.00
3701;DHT22;1866;48.374;10.766;2022-12-29T07:53:12;8.50;1.00
3701;DHT22;1866;48.374;10.766;2022-12-29T07:55:38;8.50;1.00
3701;DHT22;1866;48.374;10.766;2022-12-29T07:58:05;8.50;1.00
3701;DHT22;1866;48.374;10.766;2022-12-29T08:00:33;8.70;1.00
3701;DHT22;1866;48.374;10.766;2022-12-29T08:02:59;8.60;1.00
3701;DHT22;1866;48.374;10.766;2022-12-29T08:05:26;8.60;1.00
3701;DHT22;1866;48.374;10.766;2022-12-29T08:07:53;8.70;1.00
3701;DHT22;1866;48.374;10.766;2022-12-29T08:10:21;8.60;1.00
3701;DHT22;1866;48.374;10.766;2022-12-29T08:12:48;8.70;1.00
3701;DHT22;1866;48.374;10.766;2022-12-29T08:15:15;8.60;1.00
3701;DHT22;1866;48.374;10.766;2022-12-29T08:17:42;9.00;1.00
3701;DHT22;1866;48.374;10.766;2022-12-29T08:20:09;9.00;1.00
3701;DHT22;1866;48.374;10.766;2022-12-29T08:22:36;9.00;1.00
3701;DHT22;1866;48.374;10.766;2022-12-29T08:25:04;8.90;1.00
3701;DHT22;1866;48.374;10.766;2022-12-29T08:27:32;9.20;1.00
3701;DHT22;1866;48.374;10.766;2022-12-29T08:29:59;9.20;1.00
3701;DHT22;1866;48.374;10.766;2022-12-29T08:32:26;9.40;1.00
3701;DHT22;1866;48.374;10.766;2022-12-29T08:34:53;9.40;1.00
3701;DHT22;1866;48.374;10.766;2022-12-29T08:37:20;9.50;1.00
3701;DHT22;1866;48.374;10.766;2022-12-29T08:39:49;9.40;1.00
3701;DHT22;1866;48.374;10.766;2022-12-29T08:42:15;9.40;1.00
3701;DHT22;1866;48.374;10.766;2022-12-29T08:44:44;9.60;1.00
3701;DHT22;1866;48.374;10.766;2022-12-29T08:47:11;9.50;1.00
3701;DHT22;1866;48.374;10.766;2022-12-29T08:49:37;9.50;1.00
3701;DHT22;1866;48.374;10.766;2022-12-29T08:52:04;9.60;1.00
3701;DHT22;1866;48.374;10.766;2022-12-29T08:54:31;9.40;1.00
3701;DHT22;1866;48.374;10.766;2022-12-29T08:56:58;9.40;1.00
3701;DHT22;1866;48.374;10.766;2022-12-29T08:59:25;9.50;1.00
3701;DHT22;1866;48.374;10.766;2022-12-29T09:01:53;9.60;1.00
3701;DHT22;1866;48.374;10.766;2022-12-29T09:04:21;9.60;1.00
3701;DHT22;1866;48.374;10.766;2022-12-29T09:06:49;9.70;1.00
3701;DHT22;1866;48.374;10.766;2022-12-29T09:09:16;9.60;1.00
3701;DHT22;1866;48.374;10.766;2022-12-29T09:11:44;9.70;1.00
3701;DHT22;1866;48.374;10.766;2022-12-29T09:14:11;9.70;1.00
3701;DHT22;1866;48.374;10.766;2022-12-29T09:16:39;9.80;1.00
3701;DHT22;1866;48.374;10.766;2022-12-29T09:19:21;9.90;1.00
3701;DHT22;1866;48.374;10.766;2022-12-29T09:21:48;9.80;1.00
3701;DHT22;1866;48.374;10.766;2022-12-29T09:24:15;10.00;1.00
3701;DHT22;1866;48.374;10.766;2022-12-29T09:26:41;10.10;1.00
3701;DHT22;1866;48.374;10.766;2022-12-29T09:29:08;10.00;1.00
3701;DHT22;1866;48.374;10.766;2022-12-29T09:31:35;10.00;1.00
3701;DHT22;1866;48.374;10.766;2022-12-29T09:34:02;10.20;1.00
3701;DHT22;1866;48.374;10.766;2022-12-29T09:36:30;10.10;1.00
3701;DHT22;1866;48.374;10.766;2022-12-29T09:38:57;10.00;1.00
3701;DHT22;1866;48.374;10.766;2022-12-29T09:41:28;10.00;1.00
3701;DHT22;1866;48.374;10.766;2022-12-29T09:44:12;10.10;1.00
3701;DHT22;1866;48.374;10.766;2022-12-29T09:46:44;10.10;1.00
3701;DHT22;1866;48.374;10.766;2022-12-29T09:49:21;10.20;1.00
3701;DHT22;1866;48.374;10.766;2022-12-29T09:51:53;10.10;1.00
3701;DHT22;1866;48.374;10.766;2022-12-29T09:54:29;10.10;1.00
3701;DHT22;1866;48.374;10.766;2022-12-29T09:56:58;10.10;1.00
3701;DHT22;1866;48.374;10.766;2022-12-29T09:59:35;10.20;1.00
3701;DHT22;1866;48.374;10.766;2022-12-29T10:02:14;10.20;1.00
3701;DHT22;1866;48.374;10.766;2022-12-29T10:04:43;10.30;1.00
3701;DHT22;1866;48.374;10.766;2022-12-29T10:07:16;10.30;1.00
3701;DHT22;1866;48.374;10.766;2022-12-29T10:09:49;10.30;1.00
3701;DHT22;1866;48.374;10.766;2022-12-29T10:12:30;10.40;1.00
3701;DHT22;1866;48.374;10.766;2022-12-29T10:15:04;10.40;1.00
3701;DHT22;1866;48.374;10.766;2022-12-29T10:17:39;10.50;1.00
3701;DHT22;1866;48.374;10.766;2022-12-29T10:20:18;10.80;1.00
3701;DHT22;1866;48.374;10.766;2022-12-29T10:25:45;10.90;1.00
3701;DHT22;1866;48.374;10.766;2022-12-29T10:28:18;11.00;1.00
3701;DHT22;1866;48.374;10.766;2022-12-29T10:30:47;11.00;1.00
3701;DHT22;1866;48.374;10.766;2022-12-29T10:33:18;11.10;1.00
3701;DHT22;1866;48.374;10.766;2022-12-29T10:35:47;11.00;1.00
3701;DHT22;1866;48.374;10.766;2022-12-29T10:38:22;11.00;1.00
3701;DHT22;1866;48.374;10.766;2022-12-29T10:40:53;11.10;1.00
3701;DHT22;1866;48.374;10.766;2022-12-29T10:43:25;11.00;1.00
3701;DHT22;1866;48.374;10.766;2022-12-29T10:45:53;11.10;1.00
3701;DHT22;1866;48.374;10.766;2022-12-29T10:48:23;11.10;1.00
3701;DHT22;1866;48.374;10.766;2022-12-29T10:50:54;11.10;1.00
3701;DHT22;1866;48.374;10.766;2022-12-29T10:53:26;11.10;1.00
3701;DHT22;1866;48.374;10.766;2022-12-29T10:55:55;11.20;1.00
3701;DHT22;1866;48.374;10.766;2022-12-29T10:58:22;11.20;1.00
3701;DHT22;1866;48.374;10.766;2022-12-29T11:00:51;11.30;1.00
3701;DHT22;1866;48.374;10.766;2022-12-29T11:03:49;11.20;1.00
3701;DHT22;1866;48.374;10.766;2022-12-29T11:06:24;11.00;1.00
3701;DHT22;1866;48.374;10.766;2022-12-29T11:08:55;11.10;1.00
3701;DHT22;1866;48.374;10.766;2022-12-29T11:11:25;11.20;1.00
3701;DHT22;1866;48.374;10.766;2022-12-29T11:13:57;11.40;1.00
3701;DHT22;1866;48.374;10.766;2022-12-29T11:16:29;11.50;1.00
3701;DHT22;1866;48.374;10.766;2022-12-29T11:18:58;11.50;1.00
3701;DHT22;1866;48.374;10.766;2022-12-29T11:21:27;11.50;1.00
3701;DHT22;1866;48.374;10.766;2022-12-29T11:24:00;11.70;1.00
3701;DHT22;1866;48.374;10.766;2022-12-29T11:26:27;11.70;1.00
3701;DHT22;1866;48.374;10.766;2022-12-29T11:29:22;11.70;1.00
3701;DHT22;1866;48.374;10.766;2022-12-29T11:31:51;11.80;1.00
3701;DHT22;1866;48.374;10.766;2022-12-29T11:34:21;11.90;1.00
3701;DHT22;1866;48.374;10.766;2022-12-29T11:36:51;11.90;1.00
3701;DHT22;1866;48.374;10.766;2022-12-29T11:39:33;12.00;1.00
3701;DHT22;1866;48.374;10.766;2022-12-29T11:42:01;12.10;1.00
3701;DHT22;1866;48.374;10.766;2022-12-29T11:44:35;12.00;1.00
3701;DHT22;1866;48.374;10.766;2022-12-29T11:47:03;12.00;1.00
3701;DHT22;1866;48.374;10.766;2022-12-29T11:49:30;12.10;1.00
3701;DHT22;1866;48.374;10.766;2022-12-29T11:51:57;12.00;1.00
3701;DHT22;1866;48.374;10.766;2022-12-29T11:54:27;12.10;1.00
3701;DHT22;1866;48.374;10.766;2022-12-29T11:56:58;12.00;1.00
3701;DHT22;1866;48.374;10.766;2022-12-29T11:59:41;11.90;1.00
3701;DHT22;1866;48.374;10.766;2022-12-29T12:02:35;11.90;1.00
3701;DHT22;1866;48.374;10.766;2022-12-29T12:05:10;11.80;1.00
3701;DHT22;1866;48.374;10.766;2022-12-29T12:07:41;11.90;1.00
3701;DHT22;1866;48.374;10.766;2022-12-29T12:10:25;11.80;1.00
3701;DHT22;1866;48.374;10.766;2022-12-29T12:12:59;11.80;1.00
3701;DHT22;1866;48.374;10.766;2022-12-29T12:15:33;11.90;1.00
3701;DHT22;1866;48.374;10.766;2022-12-29T12:18:08;11.80;1.00
3701;DHT22;1866;48.374;10.766;2022-12-29T12:20:42;11.80;1.00
3701;DHT22;1866;48.374;10.766;2022-12-29T12:23:18;11.80;1.00
3701;DHT22;1866;48.374;10.766;2022-12-29T12:25:56;11.80;1.00
3701;DHT22;1866;48.374;10.766;2022-12-29T12:28:33;11.70;1.00
3701;DHT22;1866;48.374;10.766;2022-12-29T12:31:06;11.80;1.00
3701;DHT22;1866;48.374;10.766;2022-12-29T12:33:42;11.70;1.00
3701;DHT22;1866;48.374;10.766;2022-12-29T12:36:26;11.70;1.00
3701;DHT22;1866;48.374;10.766;2022-12-29T12:39:00;11.90;1.00
3701;DHT22;1866;48.374;10.766;2022-12-29T12:41:37;12.10;1.00
3701;DHT22;1866;48.374;10.766;2022-12-29T12:44:17;12.00;1.00
3701;DHT22;1866;48.374;10.766;2022-12-29T12:47:03;12.00;1.00
3701;DHT22;1866;48.374;10.766;2022-12-29T12:49:52;12.10;1.00
3701;DHT22;1866;48.374;10.766;2022-12-29T12:52:29;12.10;1.00
3701;DHT22;1866;48.374;10.766;2022-12-29T12:55:13;12.10;1.00
3701;DHT22;1866;48.374;10.766;2022-12-29T12:57:50;12.10;1.00
3701;DHT22;1866;48.374;10.766;2022-12-29T13:00:22;12.20;1.00
3701;DHT22;1866;48.374;10.766;2022-12-29T13:03:00;12.20;1.00
3701;DHT22;1866;48.374;10.766;2022-12-29T13:05:47;12.20;1.00
3701;DHT22;1866;48.374;10.766;2022-12-29T13:08:30;12.10;1.00
3701;DHT22;1866;48.374;10.766;2022-12-29T13:11:09;12.10;1.00
3701;DHT22;1866;48.374;10.766;2022-12-29T13:13:52;12.10;1.00
3701;DHT22;1866;48.374;10.766;2022-12-29T13:16:28;12.10;1.00
3701;DHT22;1866;48.374;10.766;2022-12-29T13:19:01;12.20;1.00
3701;DHT22;1866;48.374;10.766;2022-12-29T13:21:38;12.10;1.00
3701;DHT22;1866;48.374;10.766;2022-12-29T13:24:15;12.10;1.00
3701;DHT22;1866;48.374;10.766;2022-12-29T13:26:47;12.20;1.00
3701;DHT22;1866;48.374;10.766;2022-12-29T13:29:18;12.10;1.00
3701;DHT22;1866;48.374;10.766;2022-12-29T13:31:52;12.00;1.00
3701;DHT22;1866;48.374;10.766;2022-12-29T13:34:28;11.90;1.00
3701;DHT22;1866;48.374;10.766;2022-12-29T13:37:00;12.00;1.00
3701;DHT22;1866;48.374;10.766;2022-12-29T13:39:33;11.90;1.00
3701;DHT22;1866;48.374;10.766;2022-12-29T13:42:01;11.90;1.00
3701;DHT22;1866;48.374;10.766;2022-12-29T13:44:34;11.80;1.00
3701;DHT22;1866;48.374;10.766;2022-12-29T13:47:11;11.80;1.00
3701;DHT22;1866;48.374;10.766;2022-12-29T13:49:40;11.70;1.00
3701;DHT22;1866;48.374;10.766;2022-12-29T13:52:13;11.70;1.00
3701;DHT22;1866;48.374;10.766;2022-12-29T13:54:51;11.80;1.00
3701;DHT22;1866;48.374;10.766;2022-12-29T13:57:31;11.80;1.00
3701;DHT22;1866;48.374;10.766;2022-12-29T14:00:03;11.80;1.00
3701;DHT22;1866;48.374;10.766;2022-12-29T14:02:42;11.60;1.00
3701;DHT22;1866;48.374;10.766;2022-12-29T14:05:28;11.60;1.00
3701;DHT22;1866;48.374;10.766;2022-12-29T14:07:58;11.70;1.00
3701;DHT22;1866;48.374;10.766;2022-12-29T14:10:29;11.50;1.00
3701;DHT22;1866;48.374;10.766;2022-12-29T14:13:04;11.60;1.00
3701;DHT22;1866;48.374;10.766;2022-12-29T14:15:32;11.50;1.00
3701;DHT22;1866;48.374;10.766;2022-12-29T14:18:10;11.40;1.00
3701;DHT22;1866;48.374;10.766;2022-12-29T14:20:39;11.30;1.00
3701;DHT22;1866;48.374;10.766;2022-12-29T14:23:25;11.40;1.00
3701;DHT22;1866;48.374;10.766;2022-12-29T14:26:15;11.30;1.00
3701;DHT22;1866;48.374;10.766;2022-12-29T14:28:45;11.20;1.00
3701;DHT22;1866;48.374;10.766;2022-12-29T14:31:34;11.20;1.00
3701;DHT22;1866;48.374;10.766;2022-12-29T14:34:30;11.30;1.00
3701;DHT22;1866;48.374;10.766;2022-12-29T14:36:59;11.10;1.00
3701;DHT22;1866;48.374;10.766;2022-12-29T14:39:36;11.20;1.00
3701;DHT22;1866;48.374;10.766;2022-12-29T14:42:06;11.30;1.00
3701;DHT22;1866;48.374;10.766;2022-12-29T14:44:33;11.10;1.00
3701;DHT22;1866;48.374;10.766;2022-12-29T14:47:03;11.10;1.00
3701;DHT22;1866;48.374;10.766;2022-12-29T14:49:40;11.00;1.00
3701;DHT22;1866;48.374;10.766;2022-12-29T14:52:14;11.00;1.00
3701;DHT22;1866;48.374;10.766;2022-12-29T14:54:45;10.90;1.00
3701;DHT22;1866;48.374;10.766;2022-12-29T14:57:20;10.90;1.00
3701;DHT22;1866;48.374;10.766;2022-12-29T14:59:48;10.90;1.00
3701;DHT22;1866;48.374;10.766;2022-12-29T15:02:24;10.80;1.00
3701;DHT22;1866;48.374;10.766;2022-12-29T15:04:53;10.80;1.00
3701;DHT22;1866;48.374;10.766;2022-12-29T15:07:27;10.60;1.00
3701;DHT22;1866;48.374;10.766;2022-12-29T15:09:58;10.50;1.00
3701;DHT22;1866;48.374;10.766;2022-12-29T15:12:30;10.40;1.00
3701;DHT22;1866;48.374;10.766;2022-12-29T15:15:00;10.40;1.00
3701;DHT22;1866;48.374;10.766;2022-12-29T15:17:29;10.40;1.00
3701;DHT22;1866;48.374;10.766;2022-12-29T15:19:59;10.30;1.00
3701;DHT22;1866;48.374;10.766;2022-12-29T15:22:27;10.10;1.00
3701;DHT22;1866;48.374;10.766;2022-12-29T15:24:55;10.10;1.00
3701;DHT22;1866;48.374;10.766;2022-12-29T15:27:24;10.10;1.00
3701;DHT22;1866;48.374;10.766;2022-12-29T15:29:56;10.00;1.00
3701;DHT22;1866;48.374;10.766;2022-12-29T15:32:25;9.90;1.00
3701;DHT22;1866;48.374;10.766;2022-12-29T15:34:53;9.90;1.00
3701;DHT22;1866;48.374;10.766;2022-12-29T15:37:24;9.80;1.00
3701;DHT22;1866;48.374;10.766;2022-12-29T15:39:54;9.80;1.00
3701;DHT22;1866;48.374;10.766;2022-12-29T15:42:47;9.80;1.00
3701;DHT22;1866;48.374;10.766;2022-12-29T15:45:17;9.80;1.00
3701;DHT22;1866;48.374;10.766;2022-12-29T15:47:45;9.70;1.00
3701;DHT22;1866;48.374;10.766;2022-12-29T15:50:20;9.60;1.00
3701;DHT22;1866;48.374;10.766;2022-12-29T15:52:49;9.70;1.00
3701;DHT22;1866;48.374;10.766;2022-12-29T15:55:20;9.70;1.00
3701;DHT22;1866;48.374;10.766;2022-12-29T15:57:48;9.70;1.00
3701;DHT22;1866;48.374;10.766;2022-12-29T16:00:23;9.90;1.00
3701;DHT22;1866;48.374;10.766;2022-12-29T16:02:51;9.90;1.00
3701;DHT22;1866;48.374;10.766;2022-12-29T16:05:19;9.90;1.00
3701;DHT22;1866;48.374;10.766;2022-12-29T16:07:54;10.00;1.00
3701;DHT22;1866;48.374;10.766;2022-12-29T16:10:31;10.00;1.00
3701;DHT22;1866;48.374;10.766;2022-12-29T16:13:05;10.00;1.00
3701;DHT22;1866;48.374;10.766;2022-12-29T16:15:33;10.00;1.00
3701;DHT22;1866;48.374;10.766;2022-12-29T16:18:00;10.00;1.00
3701;DHT22;1866;48.374;10.766;2022-12-29T16:20:36;9.90;1.00
3701;DHT22;1866;48.374;10.766;2022-12-29T16:23:05;10.00;1.00
3701;DHT22;1866;48.374;10.766;2022-12-29T16:25:36;10.00;1.00
3701;DHT22;1866;48.374;10.766;2022-12-29T16:28:16;9.90;1.00
3701;DHT22;1866;48.374;10.766;2022-12-29T16:30:43;9.90;1.00
3701;DHT22;1866;48.374;10.766;2022-12-29T16:33:38;9.90;1.00
3701;DHT22;1866;48.374;10.766;2022-12-29T16:36:29;9.90;1.00
3701;DHT22;1866;48.374;10.766;2022-12-29T16:39:21;9.90;1.00
3701;DHT22;1866;48.374;10.766;2022-12-29T16:41:52;10.00;1.00
3701;DHT22;1866;48.374;10.766;2022-12-29T16:44:21;10.00;1.00
3701;DHT22;1866;48.374;10.766;2022-12-29T16:47:19;9.90;1.00
3701;DHT22;1866;48.374;10.766;2022-12-29T16:49:51;9.90;1.00